sensor_id;sensor_type;location;lat;lon;timestamp;pressure;altitude;pressure_sealevel;temperature;humidity
11676;BME280;5894;42.768;23.404;2023-02-12T00:00:19;96662.72;;;-0.85;92.84
11676;BME280;5894;42.768;23.404;2023-02-12T00:02:46;96671.28;;;-0.91;93.43
11676;BME280;5894;42.768;23.404;2023-02-12T00:05:15;96669.25;;;-0.83;93.08
11676;BME280;5894;42.768;23.404;2023-02-12T00:07:42;96672.88;;;-0.84;93.26
11676;BME280;5894;42.768;23.404;2023-02-12T00:10:09;96668.50;;;-0.83;93.36
11676;BME280;5894;42.768;23.404;2023-02-12T00:12:36;96669.28;;;-0.76;92.98
11676;BME280;5894;42.768;23.404;2023-02-12T00:15:03;96667.69;;;-0.90;93.13
11676;BME280;5894;42.768;23.404;2023-02-12T00:17:31;96664.69;;;-0.81;92.54
11676;BME280;5894;42.768;23.404;2023-02-12T00:19:58;96682.44;;;-0.84;93.12
11676;BME280;5894;42.768;23.404;2023-02-12T00:22:26;96676.25;;;-0.83;93.09
11676;BME280;5894;42.768;23.404;2023-02-12T00:24:54;96672.47;;;-0.87;93.71
11676;BME280;5894;42.768;23.404;2023-02-12T00:27:20;96676.06;;;-0.88;94.16
11676;BME280;5894;42.768;23.404;2023-02-12T00:29:48;96676.25;;;-0.90;93.81
11676;BME280;5894;42.768;23.404;2023-02-12T00:32:15;96674.28;;;-0.88;93.97
11676;BME280;5894;42.768;23.404;2023-02-12T00:34:44;96663.91;;;-0.88;93.55
11676;BME280;5894;42.768;23.404;2023-02-12T00:37:11;96664.50;;;-0.92;93.43
11676;BME280;5894;42.768;23.404;2023-02-12T00:39:40;96653.56;;;-0.88;93.46
11676;BME280;5894;42.768;23.404;2023-02-12T00:42:07;96641.63;;;-1.02;93.04
11676;BME280;5894;42.768;23.404;2023-02-12T00:44:34;96653.16;;;-0.85;93.01
11676;BME280;5894;42.768;23.404;2023-02-12T00:47:03;96645.75;;;-0.81;92.60
11676;BME280;5894;42.768;23.404;2023-02-12T00:49:31;96641.78;;;-0.77;92.17
11676;BME280;5894;42.768;23.404;2023-02-12T00:52:02;96634.00;;;-0.77;92.13
11676;BME280;5894;42.768;23.404;2023-02-12T00:54:30;96630.81;;;-0.79;92.28
11676;BME280;5894;42.768;23.404;2023-02-12T00:56:58;96624.84;;;-0.80;92.33
11676;BME280;5894;42.768;23.404;2023-02-12T00:59:30;96638.38;;;-0.78;92.25
11676;BME280;5894;42.768;23.404;2023-02-12T01:01:57;96640.34;;;-0.66;91.26
11676;BME280;5894;42.768;23.404;2023-02-12T01:04:25;96637.53;;;-0.58;90.70
11676;BME280;5894;42.768;23.404;2023-02-12T01:06:53;96635.34;;;-0.55;90.15
11676;BME280;5894;42.768;23.404;2023-02-12T01:09:20;96650.69;;;-0.53;90.22
11676;BME280;5894;42.768;23.404;2023-02-12T01:11:47;96632.56;;;-0.66;90.67
11676;BME280;5894;42.768;23.404;2023-02-12T01:14:16;96606.34;;;-0.83;91.15
11676;BME280;5894;42.768;23.404;2023-02-12T01:16:45;96651.47;;;-0.59;91.44
11676;BME280;5894;42.768;23.404;2023-02-12T01:19:12;96643.94;;;-0.67;92.33
11676;BME280;5894;42.768;23.404;2023-02-12T01:21:39;96647.13;;;-0.65;92.84
11676;BME280;5894;42.768;23.404;2023-02-12T01:24:06;96629.63;;;-0.77;92.96
11676;BME280;5894;42.768;23.404;2023-02-12T01:26:33;96641.56;;;-0.82;94.27
11676;BME280;5894;42.768;23.404;2023-02-12T01:29:03;96633.00;;;-0.76;94.27
11676;BME280;5894;42.768;23.404;2023-02-12T01:31:34;96636.38;;;-0.69;94.26
11676;BME280;5894;42.768;23.404;2023-02-12T01:34:01;96624.81;;;-0.66;93.77
11676;BME280;5894;42.768;23.404;2023-02-12T01:36:29;96629.97;;;-0.66;93.75
11676;BME280;5894;42.768;23.404;2023-02-12T01:38:57;96621.63;;;-0.68;94.02
11676;BME280;5894;42.768;23.404;2023-02-12T01:41:26;96616.03;;;-0.65;94.23
11676;BME280;5894;42.768;23.404;2023-02-12T01:44:09;96615.03;;;-0.64;94.21
11676;BME280;5894;42.768;23.404;2023-02-12T01:46:37;96608.84;;;-0.63;94.46
11676;BME280;5894;42.768;23.404;2023-02-12T01:49:07;96600.50;;;-0.65;94.73
11676;BME280;5894;42.768;23.404;2023-02-12T01:51:35;96603.44;;;-0.62;94.67
11676;BME280;5894;42.768;23.404;2023-02-12T01:54:04;96599.69;;;-0.66;94.65
11676;BME280;5894;42.768;23.404;2023-02-12T01:56:33;96609.22;;;-0.60;95.00
11676;BME280;5894;42.768;23.404;2023-02-12T01:59:00;96611.63;;;-0.58;95.06
11676;BME280;5894;42.768;23.404;2023-02-12T02:01:31;96614.41;;;-0.60;95.06
11676;BME280;5894;42.768;23.404;2023-02-12T02:04:04;96622.56;;;-0.56;94.93
11676;BME280;5894;42.768;23.404;2023-02-12T02:06:36;96624.56;;;-0.58;94.79
11676;BME280;5894;42.768;23.404;2023-02-12T02:09:04;96578.66;;;-0.89;94.80
11676;BME280;5894;42.768;23.404;2023-02-12T02:11:31;96598.75;;;-0.78;94.59
11676;BME280;5894;42.768;23.404;2023-02-12T02:14:15;96592.38;;;-0.76;94.40
11676;BME280;5894;42.768;23.404;2023-02-12T02:17:08;96594.91;;;-0.69;94.10
11676;BME280;5894;42.768;23.404;2023-02-12T02:19:53;96606.88;;;-0.68;94.89
11676;BME280;5894;42.768;23.404;2023-02-12T02:22:30;96600.69;;;-0.67;93.74
11676;BME280;5894;42.768;23.404;2023-02-12T02:25:25;96596.16;;;-0.78;94.23
11676;BME280;5894;42.768;23.404;2023-02-12T02:28:12;96606.09;;;-0.75;94.33
11676;BME280;5894;42.768;23.404;2023-02-12T02:30:49;96597.53;;;-0.76;94.15
11676;BME280;5894;42.768;23.404;2023-02-12T02:33:31;96590.75;;;-0.77;94.24
11676;BME280;5894;42.768;23.404;2023-02-12T02:36:12;96604.13;;;-0.80;95.03
11676;BME280;5894;42.768;23.404;2023-02-12T02:38:42;96594.94;;;-0.82;95.18
11676;BME280;5894;42.768;23.404;2023-02-12T02:41:16;96607.47;;;-0.73;94.68
11676;BME280;5894;42.768;23.404;2023-02-12T02:43:48;96617.63;;;-0.71;94.72
11676;BME280;5894;42.768;23.404;2023-02-12T02:46:20;96606.91;;;-0.75;94.27
11676;BME280;5894;42.768;23.404;2023-02-12T02:48:52;96581.59;;;-0.79;93.77
11676;BME280;5894;42.768;23.404;2023-02-12T02:51:22;96614.41;;;-0.60;93.62
11676;BME280;5894;42.768;23.404;2023-02-12T02:53:57;96610.41;;;-0.56;93.07
11676;BME280;5894;42.768;23.404;2023-02-12T02:56:28;96616.41;;;-0.55;93.41
11676;BME280;5894;42.768;23.404;2023-02-12T02:58:58;96606.63;;;-0.60;93.79
11676;BME280;5894;42.768;23.404;2023-02-12T03:01:31;96611.22;;;-0.55;93.88
11676;BME280;5894;42.768;23.404;2023-02-12T03:04:03;96616.19;;;-0.54;94.04
11676;BME280;5894;42.768;23.404;2023-02-12T03:06:35;96608.44;;;-0.54;94.04
11676;BME280;5894;42.768;23.404;2023-02-12T03:09:14;96615.38;;;-0.48;94.48
11676;BME280;5894;42.768;23.404;2023-02-12T03:11:42;96612.97;;;-0.49;96.00
11676;BME280;5894;42.768;23.404;2023-02-12T03:14:14;96615.97;;;-0.46;96.42
11676;BME280;5894;42.768;23.404;2023-02-12T03:16:50;96613.16;;;-0.44;96.55
11676;BME280;5894;42.768;23.404;2023-02-12T03:19:22;96612.53;;;-0.40;96.40
11676;BME280;5894;42.768;23.404;2023-02-12T03:21:54;96608.13;;;-0.32;96.22
11676;BME280;5894;42.768;23.404;2023-02-12T03:24:25;96603.16;;;-0.34;96.21
11676;BME280;5894;42.768;23.404;2023-02-12T03:26:58;96593.94;;;-0.30;95.45
11676;BME280;5894;42.768;23.404;2023-02-12T03:29:30;96602.50;;;-0.29;94.70
11676;BME280;5894;42.768;23.404;2023-02-12T03:32:19;96601.50;;;-0.28;93.42
11676;BME280;5894;42.768;23.404;2023-02-12T03:34:53;96611.09;;;-0.29;93.76
11676;BME280;5894;42.768;23.404;2023-02-12T03:37:26;96595.97;;;-0.32;93.86
11676;BME280;5894;42.768;23.404;2023-02-12T03:39:57;96602.69;;;-0.24;94.14
11676;BME280;5894;42.768;23.404;2023-02-12T03:42:31;96588.34;;;-0.27;94.23
11676;BME280;5894;42.768;23.404;2023-02-12T03:45:03;96592.13;;;-0.23;94.39
11676;BME280;5894;42.768;23.404;2023-02-12T03:47:42;96604.25;;;-0.17;93.70
11676;BME280;5894;42.768;23.404;2023-02-12T03:50:13;96609.63;;;-0.18;94.27
11676;BME280;5894;42.768;23.404;2023-02-12T03:52:43;96607.81;;;-0.11;94.34
11676;BME280;5894;42.768;23.404;2023-02-12T03:55:11;96608.03;;;-0.13;94.42
11676;BME280;5894;42.768;23.404;2023-02-12T03:57:41;96602.19;;;-0.08;94.49
11676;BME280;5894;42.768;23.404;2023-02-12T04:00:11;96595.00;;;-0.06;94.42
11676;BME280;5894;42.768;23.404;2023-02-12T04:02:48;96592.81;;;-0.03;94.19
11676;BME280;5894;42.768;23.404;2023-02-12T04:05:25;96581.44;;;-0.08;94.51
11676;BME280;5894;42.768;23.404;2023-02-12T04:07:53;96602.59;;;-0.05;94.94
11676;BME280;5894;42.768;23.404;2023-02-12T04:10:26;96586.63;;;-0.02;94.68
11676;BME280;5894;42.768;23.404;2023-02-12T04:12:59;96600.53;;;0.04;94.46
11676;BME280;5894;42.768;23.404;2023-02-12T04:15:42;96598.19;;;-0.04;94.86
11676;BME280;5894;42.768;23.404;2023-02-12T04:18:18;96606.94;;;0.02;95.15
11676;BME280;5894;42.768;23.404;2023-02-12T04:20:52;96608.72;;;0.01;95.10
11676;BME280;5894;42.768;23.404;2023-02-12T04:23:37;96607.72;;;0.02;94.63
11676;BME280;5894;42.768;23.404;2023-02-12T04:26:16;96604.78;;;-0.02;94.85
11676;BME280;5894;42.768;23.404;2023-02-12T04:28:54;96568.41;;;-0.26;95.13
11676;BME280;5894;42.768;23.404;2023-02-12T04:31:26;96607.72;;;0.02;94.24
11676;BME280;5894;42.768;23.404;2023-02-12T04:34:04;96596.41;;;-0.10;94.02
11676;BME280;5894;42.768;23.404;2023-02-12T04:36:35;96608.97;;;-0.01;94.07
11676;BME280;5894;42.768;23.404;2023-02-12T04:39:07;96606.97;;;-0.05;94.21
11676;BME280;5894;42.768;23.404;2023-02-12T04:41:36;96607.38;;;-0.08;94.54
11676;BME280;5894;42.768;23.404;2023-02-12T04:44:15;96609.56;;;-0.05;94.89
11676;BME280;5894;42.768;23.404;2023-02-12T04:46:42;96599.25;;;-0.12;95.01
11676;BME280;5894;42.768;23.404;2023-02-12T04:49:13;96605.84;;;-0.16;96.21
11676;BME280;5894;42.768;23.404;2023-02-12T04:51:41;96614.06;;;-0.25;97.85
11676;BME280;5894;42.768;23.404;2023-02-12T04:54:09;96610.63;;;-0.19;98.96
11676;BME280;5894;42.768;23.404;2023-02-12T04:56:36;96604.88;;;-0.21;99.54
11676;BME280;5894;42.768;23.404;2023-02-12T04:59:03;96618.41;;;-0.19;99.90
11676;BME280;5894;42.768;23.404;2023-02-12T05:01:32;96620.00;;;-0.12;99.91
11676;BME280;5894;42.768;23.404;2023-02-12T05:04:00;96623.75;;;-0.08;100.00
11676;BME280;5894;42.768;23.404;2023-02-12T05:06:29;96620.53;;;-0.03;99.19
11676;BME280;5894;42.768;23.404;2023-02-12T05:08:59;96619.09;;;0.01;98.90
11676;BME280;5894;42.768;23.404;2023-02-12T05:11:25;96625.06;;;0.02;99.04
11676;BME280;5894;42.768;23.404;2023-02-12T05:13:52;96629.69;;;-0.01;100.00
11676;BME280;5894;42.768;23.404;2023-02-12T05:16:20;96630.69;;;-0.02;100.00
11676;BME280;5894;42.768;23.404;2023-02-12T05:18:47;96627.94;;;-0.07;100.00
11676;BME280;5894;42.768;23.404;2023-02-12T05:21:14;96636.88;;;-0.03;100.00
11676;BME280;5894;42.768;23.404;2023-02-12T05:23:44;96635.88;;;-0.02;100.00
11676;BME280;5894;42.768;23.404;2023-02-12T05:26:14;96635.69;;;-0.07;100.00
11676;BME280;5894;42.768;23.404;2023-02-12T05:28:41;96638.69;;;-0.10;100.00
11676;BME280;5894;42.768;23.404;2023-02-12T05:31:09;96626.97;;;-0.19;99.64
11676;BME280;5894;42.768;23.404;2023-02-12T05:33:36;96648.50;;;-0.12;99.50
11676;BME280;5894;42.768;23.404;2023-02-12T05:36:04;96644.31;;;-0.13;99.70
11676;BME280;5894;42.768;23.404;2023-02-12T05:38:31;96646.13;;;-0.13;99.65
11676;BME280;5894;42.768;23.404;2023-02-12T05:41:04;96640.13;;;-0.14;100.00
11676;BME280;5894;42.768;23.404;2023-02-12T05:43:32;96642.72;;;-0.14;100.00
11676;BME280;5894;42.768;23.404;2023-02-12T05:45:59;96642.88;;;-0.09;99.57
11676;BME280;5894;42.768;23.404;2023-02-12T05:48:27;96656.44;;;-0.07;99.11
11676;BME280;5894;42.768;23.404;2023-02-12T05:50:59;96648.84;;;-0.02;98.46
11676;BME280;5894;42.768;23.404;2023-02-12T05:53:26;96655.03;;;-0.03;98.53
11676;BME280;5894;42.768;23.404;2023-02-12T05:55:53;96650.66;;;-0.02;98.36
11676;BME280;5894;42.768;23.404;2023-02-12T05:58:21;96653.78;;;0.07;97.99
11676;BME280;5894;42.768;23.404;2023-02-12T06:00:48;96664.91;;;0.14;96.80
11676;BME280;5894;42.768;23.404;2023-02-12T06:03:15;96662.56;;;0.06;97.09
11676;BME280;5894;42.768;23.404;2023-02-12T06:05:49;96656.38;;;0.07;97.38
11676;BME280;5894;42.768;23.404;2023-02-12T06:08:16;96664.56;;;0.10;97.49
11676;BME280;5894;42.768;23.404;2023-02-12T06:10:42;96662.31;;;0.14;97.82
11676;BME280;5894;42.768;23.404;2023-02-12T06:13:10;96677.28;;;0.18;98.09
11676;BME280;5894;42.768;23.404;2023-02-12T06:15:38;96681.06;;;0.16;99.12
11676;BME280;5894;42.768;23.404;2023-02-12T06:18:05;96676.28;;;0.13;99.82
11676;BME280;5894;42.768;23.404;2023-02-12T06:20:31;96670.75;;;0.09;100.00
11676;BME280;5894;42.768;23.404;2023-02-12T06:22:58;96676.13;;;0.08;100.00
11676;BME280;5894;42.768;23.404;2023-02-12T06:25:27;96679.31;;;0.10;100.00
11676;BME280;5894;42.768;23.404;2023-02-12T06:27:54;96681.53;;;0.06;100.00
11676;BME280;5894;42.768;23.404;2023-02-12T06:30:20;96680.88;;;0.11;100.00
11676;BME280;5894;42.768;23.404;2023-02-12T06:32:49;96672.69;;;0.20;100.00
11676;BME280;5894;42.768;23.404;2023-02-12T06:35:16;96673.88;;;0.18;100.00
11676;BME280;5894;42.768;23.404;2023-02-12T06:37:43;96675.47;;;0.19;100.00
11676;BME280;5894;42.768;23.404;2023-02-12T06:40:10;96678.81;;;0.26;100.00
11676;BME280;5894;42.768;23.404;2023-02-12T06:42:37;96684.19;;;0.31;100.00
11676;BME280;5894;42.768;23.404;2023-02-12T06:45:04;96692.19;;;0.29;100.00
11676;BME280;5894;42.768;23.404;2023-02-12T06:47:32;96697.16;;;0.31;100.00
11676;BME280;5894;42.768;23.404;2023-02-12T06:50:00;96689.38;;;0.31;100.00
11676;BME280;5894;42.768;23.404;2023-02-12T06:52:27;96684.97;;;0.31;100.00
11676;BME280;5894;42.768;23.404;2023-02-12T06:54:55;96684.59;;;0.28;100.00
11676;BME280;5894;42.768;23.404;2023-02-12T06:57:22;96688.94;;;0.34;100.00
11676;BME280;5894;42.768;23.404;2023-02-12T06:59:49;96682.38;;;0.31;100.00
11676;BME280;5894;42.768;23.404;2023-02-12T07:02:15;96682.53;;;0.36;100.00
11676;BME280;5894;42.768;23.404;2023-02-12T07:04:42;96690.72;;;0.40;100.00
11676;BME280;5894;42.768;23.404;2023-02-12T07:07:10;96685.09;;;0.43;100.00
11676;BME280;5894;42.768;23.404;2023-02-12T07:09:37;96684.09;;;0.44;100.00
11676;BME280;5894;42.768;23.404;2023-02-12T07:12:04;96678.91;;;0.44;100.00
11676;BME280;5894;42.768;23.404;2023-02-12T07:14:33;96670.56;;;0.35;100.00
11676;BME280;5894;42.768;23.404;2023-02-12T07:17:00;96692.19;;;0.54;100.00
11676;BME280;5894;42.768;23.404;2023-02-12T07:19:29;96691.59;;;0.59;100.00
11676;BME280;5894;42.768;23.404;2023-02-12T07:21:56;96693.78;;;0.62;100.00
11676;BME280;5894;42.768;23.404;2023-02-12T07:24:24;96689.59;;;0.61;100.00
11676;BME280;5894;42.768;23.404;2023-02-12T07:26:51;96689.53;;;0.67;100.00
11676;BME280;5894;42.768;23.404;2023-02-12T07:29:18;96692.75;;;0.63;100.00
11676;BME280;5894;42.768;23.404;2023-02-12T07:31:45;96694.88;;;0.72;100.00
11676;BME280;5894;42.768;23.404;2023-02-12T07:34:11;96693.50;;;0.70;100.00
11676;BME280;5894;42.768;23.404;2023-02-12T07:36:38;96693.13;;;0.66;100.00
11676;BME280;5894;42.768;23.404;2023-02-12T07:39:05;96720.22;;;0.77;100.00
11676;BME280;5894;42.768;23.404;2023-02-12T07:41:34;96697.81;;;0.83;100.00
11676;BME280;5894;42.768;23.404;2023-02-12T07:44:04;96701.97;;;0.84;100.00
11676;BME280;5894;42.768;23.404;2023-02-12T07:46:33;96708.72;;;0.91;100.00
11676;BME280;5894;42.768;23.404;2023-02-12T07:49:02;96702.16;;;0.89;100.00
11676;BME280;5894;42.768;23.404;2023-02-12T07:51:30;96708.88;;;0.96;100.00
11676;BME280;5894;42.768;23.404;2023-02-12T07:53:58;96699.84;;;0.99;100.00
11676;BME280;5894;42.768;23.404;2023-02-12T07:56:27;96706.59;;;1.06;100.00
11676;BME280;5894;42.768;23.404;2023-02-12T07:58:59;96697.84;;;1.01;100.00
11676;BME280;5894;42.768;23.404;2023-02-12T08:01:28;96697.47;;;0.97;100.00
11676;BME280;5894;42.768;23.404;2023-02-12T08:03:57;96695.84;;;1.03;100.00
11676;BME280;5894;42.768;23.404;2023-02-12T08:06:26;96701.03;;;1.03;100.00
11676;BME280;5894;42.768;23.404;2023-02-12T08:08:55;96700.66;;;0.99;100.00
11676;BME280;5894;42.768;23.404;2023-02-12T08:11:23;96695.09;;;0.96;100.00
11676;BME280;5894;42.768;23.404;2023-02-12T08:13:50;96697.47;;;0.97;100.00
11676;BME280;5894;42.768;23.404;2023-02-12T08:16:20;96708.03;;;1.02;100.00
11676;BME280;5894;42.768;23.404;2023-02-12T08:18:47;96685.06;;;0.99;100.00
11676;BME280;5894;42.768;23.404;2023-02-12T08:21:16;96709.19;;;1.06;100.00
11676;BME280;5894;42.768;23.404;2023-02-12T08:23:44;96718.34;;;1.09;100.00
11676;BME280;5894;42.768;23.404;2023-02-12T08:26:12;96726.66;;;1.18;100.00
11676;BME280;5894;42.768;23.404;2023-02-12T08:28:42;96717.06;;;1.18;100.00
11676;BME280;5894;42.768;23.404;2023-02-12T08:31:12;96715.06;;;1.20;100.00
11676;BME280;5894;42.768;23.404;2023-02-12T08:33:40;96727.41;;;1.25;100.00
11676;BME280;5894;42.768;23.404;2023-02-12T08:36:09;96733.34;;;1.32;100.00
11676;BME280;5894;42.768;23.404;2023-02-12T08:38:38;96720.41;;;1.25;100.00
11676;BME280;5894;42.768;23.404;2023-02-12T08:41:07;96731.38;;;1.27;100.00
11676;BME280;5894;42.768;23.404;2023-02-12T08:43:34;96730.59;;;1.27;100.00
11676;BME280;5894;42.768;23.404;2023-02-12T08:46:02;96728.84;;;1.21;100.00
11676;BME280;5894;42.768;23.404;2023-02-12T08:48:30;96727.19;;;1.26;100.00
11676;BME280;5894;42.768;23.404;2023-02-12T08:51:05;96725.91;;;1.35;100.00
11676;BME280;5894;42.768;23.404;2023-02-12T08:53:32;96716.75;;;1.33;100.00
11676;BME280;5894;42.768;23.404;2023-02-12T08:55:59;96726.44;;;1.44;100.00
11676;BME280;5894;42.768;23.404;2023-02-12T08:58:26;96732.19;;;1.46;100.00
11676;BME280;5894;42.768;23.404;2023-02-12T09:00:53;96736.78;;;1.51;100.00
11676;BME280;5894;42.768;23.404;2023-02-12T09:03:19;96740.66;;;1.60;100.00
11676;BME280;5894;42.768;23.404;2023-02-12T09:05:46;96737.00;;;1.67;100.00
11676;BME280;5894;42.768;23.404;2023-02-12T09:08:14;96751.53;;;1.75;100.00
11676;BME280;5894;42.768;23.404;2023-02-12T09:10:42;96754.22;;;1.87;100.00
11676;BME280;5894;42.768;23.404;2023-02-12T09:13:11;96755.28;;;1.97;100.00
11676;BME280;5894;42.768;23.404;2023-02-12T09:15:38;96756.66;;;2.00;100.00
11676;BME280;5894;42.768;23.404;2023-02-12T09:18:06;96758.72;;;2.09;100.00
11676;BME280;5894;42.768;23.404;2023-02-12T09:20:36;96757.88;;;2.15;100.00
11676;BME280;5894;42.768;23.404;2023-02-12T09:23:04;96753.28;;;2.29;100.00
11676;BME280;5894;42.768;23.404;2023-02-12T09:25:33;96754.81;;;2.37;100.00
11676;BME280;5894;42.768;23.404;2023-02-12T09:28:00;96762.88;;;2.47;100.00
11676;BME280;5894;42.768;23.404;2023-02-12T09:30:26;96760.34;;;2.58;100.00
11676;BME280;5894;42.768;23.404;2023-02-12T09:32:53;96768.84;;;2.66;100.00
11676;BME280;5894;42.768;23.404;2023-02-12T09:35:20;96699.31;;;2.25;100.00
11676;BME280;5894;42.768;23.404;2023-02-12T09:37:47;96770.44;;;2.67;100.00
11676;BME280;5894;42.768;23.404;2023-02-12T09:40:17;96768.88;;;2.77;100.00
11676;BME280;5894;42.768;23.404;2023-02-12T09:42:59;96764.38;;;2.84;100.00
11676;BME280;5894;42.768;23.404;2023-02-12T09:45:31;96769.94;;;2.88;100.00
11676;BME280;5894;42.768;23.404;2023-02-12T09:48:09;96776.19;;;2.99;100.00
11676;BME280;5894;42.768;23.404;2023-02-12T09:50:44;96771.78;;;2.99;100.00
11676;BME280;5894;42.768;23.404;2023-02-12T09:53:14;96770.88;;;3.05;100.00
11676;BME280;5894;42.768;23.404;2023-02-12T09:55:42;96766.13;;;3.14;100.00
11676;BME280;5894;42.768;23.404;2023-02-12T09:58:14;96768.94;;;3.12;100.00
11676;BME280;5894;42.768;23.404;2023-02-12T10:00:42;96771.91;;;3.16;100.00
11676;BME280;5894;42.768;23.404;2023-02-12T10:03:12;96771.34;;;3.14;100.00
11676;BME280;5894;42.768;23.404;2023-02-12T10:05:44;96773.50;;;3.17;100.00
11676;BME280;5894;42.768;23.404;2023-02-12T10:08:40;96770.31;;;3.15;100.00
11676;BME280;5894;42.768;23.404;2023-02-12T10:11:24;96782.00;;;3.24;100.00
11676;BME280;5894;42.768;23.404;2023-02-12T10:14:07;96774.97;;;3.24;100.00
11676;BME280;5894;42.768;23.404;2023-02-12T10:16:45;96800.47;;;3.22;100.00
11676;BME280;5894;42.768;23.404;2023-02-12T10:19:25;96786.09;;;3.20;100.00
11676;BME280;5894;42.768;23.404;2023-02-12T10:22:00;96787.22;;;3.24;100.00
11676;BME280;5894;42.768;23.404;2023-02-12T10:24:50;96787.56;;;3.27;100.00
11676;BME280;5894;42.768;23.404;2023-02-12T10:27:24;96791.66;;;3.35;100.00
11676;BME280;5894;42.768;23.404;2023-02-12T10:29:56;96780.44;;;3.46;100.00
11676;BME280;5894;42.768;23.404;2023-02-12T10:32:27;96775.34;;;3.51;100.00
11676;BME280;5894;42.768;23.404;2023-02-12T10:34:56;96771.81;;;3.57;100.00
11676;BME280;5894;42.768;23.404;2023-02-12T10:37:29;96771.38;;;3.72;100.00
11676;BME280;5894;42.768;23.404;2023-02-12T10:40:02;96764.66;;;3.76;99.53
11676;BME280;5894;42.768;23.404;2023-02-12T10:42:35;96769.88;;;3.88;99.83
11676;BME280;5894;42.768;23.404;2023-02-12T10:45:10;96768.84;;;4.00;99.67
11676;BME280;5894;42.768;23.404;2023-02-12T10:47:38;96765.63;;;4.10;98.77
11676;BME280;5894;42.768;23.404;2023-02-12T10:50:15;96769.28;;;4.09;96.78
11676;BME280;5894;42.768;23.404;2023-02-12T10:52:47;96777.22;;;4.14;96.56
11676;BME280;5894;42.768;23.404;2023-02-12T10:55:26;96773.44;;;4.22;96.54
11676;BME280;5894;42.768;23.404;2023-02-12T10:57:54;96756.19;;;4.21;96.58
11676;BME280;5894;42.768;23.404;2023-02-12T11:00:25;96783.72;;;4.40;95.51
11676;BME280;5894;42.768;23.404;2023-02-12T11:03:04;96771.19;;;4.54;94.85
11676;BME280;5894;42.768;23.404;2023-02-12T11:05:33;96774.00;;;4.64;94.45
11676;BME280;5894;42.768;23.404;2023-02-12T11:08:00;96775.28;;;4.78;93.94
11676;BME280;5894;42.768;23.404;2023-02-12T11:10:29;96778.31;;;4.87;92.72
11676;BME280;5894;42.768;23.404;2023-02-12T11:12:57;96774.53;;;4.94;91.49
11676;BME280;5894;42.768;23.404;2023-02-12T11:15:28;96771.75;;;5.01;91.04
11676;BME280;5894;42.768;23.404;2023-02-12T11:17:59;96767.97;;;5.08;90.89
11676;BME280;5894;42.768;23.404;2023-02-12T11:20:28;96773.78;;;5.27;90.31
11676;BME280;5894;42.768;23.404;2023-02-12T11:22:57;96763.94;;;5.34;89.47
11676;BME280;5894;42.768;23.404;2023-02-12T11:25:26;96770.56;;;5.42;88.16
11676;BME280;5894;42.768;23.404;2023-02-12T11:28:14;96762.03;;;5.46;87.71
11676;BME280;5894;42.768;23.404;2023-02-12T11:30:55;96772.03;;;5.49;87.00
11676;BME280;5894;42.768;23.404;2023-02-12T11:33:28;96756.94;;;5.57;86.92
11676;BME280;5894;42.768;23.404;2023-02-12T11:35:57;96763.25;;;5.61;86.66
11676;BME280;5894;42.768;23.404;2023-02-12T11:38:30;96756.63;;;5.70;85.98
11676;BME280;5894;42.768;23.404;2023-02-12T11:41:01;96762.13;;;5.73;85.45
11676;BME280;5894;42.768;23.404;2023-02-12T11:43:30;96707.50;;;5.38;84.93
11676;BME280;5894;42.768;23.404;2023-02-12T11:46:00;96766.44;;;5.79;84.33
11676;BME280;5894;42.768;23.404;2023-02-12T11:48:29;96761.66;;;5.76;84.55
11676;BME280;5894;42.768;23.404;2023-02-12T11:51:00;96769.28;;;5.78;84.17
11676;BME280;5894;42.768;23.404;2023-02-12T11:53:30;96769.28;;;5.78;83.91
11676;BME280;5894;42.768;23.404;2023-02-12T11:55:59;96763.56;;;5.81;84.31
11676;BME280;5894;42.768;23.404;2023-02-12T11:58:28;96763.38;;;5.87;83.99
11676;BME280;5894;42.768;23.404;2023-02-12T12:01:03;96767.63;;;5.88;83.89
11676;BME280;5894;42.768;23.404;2023-02-12T12:03:36;96768.22;;;5.96;84.28
11676;BME280;5894;42.768;23.404;2023-02-12T12:06:15;96765.19;;;6.04;83.41
11676;BME280;5894;42.768;23.404;2023-02-12T12:08:48;96724.53;;;5.79;84.11
11676;BME280;5894;42.768;23.404;2023-02-12T12:11:18;96777.56;;;6.08;82.91
11676;BME280;5894;42.768;23.404;2023-02-12T12:13:52;96779.41;;;6.08;82.31
11676;BME280;5894;42.768;23.404;2023-02-12T12:16:30;96774.47;;;6.11;81.99
11676;BME280;5894;42.768;23.404;2023-02-12T12:19:22;96768.31;;;6.01;81.43
11676;BME280;5894;42.768;23.404;2023-02-12T12:22:25;96757.84;;;6.01;82.43
11676;BME280;5894;42.768;23.404;2023-02-12T12:24:56;96766.50;;;6.01;82.67
11676;BME280;5894;42.768;23.404;2023-02-12T12:27:31;96769.91;;;6.02;82.69
11676;BME280;5894;42.768;23.404;2023-02-12T12:30:24;96775.06;;;5.97;83.47
11676;BME280;5894;42.768;23.404;2023-02-12T12:33:00;96774.25;;;5.96;83.64
11676;BME280;5894;42.768;23.404;2023-02-12T12:35:37;96774.22;;;5.91;83.81
11676;BME280;5894;42.768;23.404;2023-02-12T12:38:14;96778.88;;;5.89;84.30
11676;BME280;5894;42.768;23.404;2023-02-12T12:40:56;96783.72;;;5.80;85.10
11676;BME280;5894;42.768;23.404;2023-02-12T12:43:35;96776.91;;;5.79;85.28
11676;BME280;5894;42.768;23.404;2023-02-12T12:46:33;96779.75;;;5.78;85.37
11676;BME280;5894;42.768;23.404;2023-02-12T12:49:33;96783.09;;;5.73;86.58
11676;BME280;5894;42.768;23.404;2023-02-12T12:52:19;96783.88;;;5.74;86.68
11676;BME280;5894;42.768;23.404;2023-02-12T12:55:07;96786.56;;;5.79;86.38
11676;BME280;5894;42.768;23.404;2023-02-12T12:57:46;96783.09;;;5.73;86.65
11676;BME280;5894;42.768;23.404;2023-02-12T13:00:26;96789.56;;;5.87;87.42
11676;BME280;5894;42.768;23.404;2023-02-12T13:03:24;96789.56;;;5.87;87.10
11676;BME280;5894;42.768;23.404;2023-02-12T13:06:18;96796.81;;;5.97;87.24
11676;BME280;5894;42.768;23.404;2023-02-12T13:08:58;96791.56;;;5.97;86.29
11676;BME280;5894;42.768;23.404;2023-02-12T13:11:37;96793.72;;;6.00;85.01
11676;BME280;5894;42.768;23.404;2023-02-12T13:17:03;96787.50;;;6.06;84.75
11676;BME280;5894;42.768;23.404;2023-02-12T13:19:38;96800.59;;;6.06;84.73
11676;BME280;5894;42.768;23.404;2023-02-12T13:22:16;96805.34;;;6.09;84.65
11676;BME280;5894;42.768;23.404;2023-02-12T13:24:50;96806.13;;;6.10;83.42
11676;BME280;5894;42.768;23.404;2023-02-12T13:27:23;96807.97;;;6.09;81.25